Time,TemperatureF,DewpointF,PressureIn,WindDirection,WindDirectionDegrees,WindSpeedMPH,WindSpeedGustMPH,Humidity,HourlyPrecipIn,Conditions,Clouds,dailyrainin,SolarRadiationWatts/m^2,SoftwareType,DateUTC
2013-01-21 00:22:00,20.0,9.0,-100.00,ENE,77,6.0,11.0,63,0.00,,,0.00,1.000000,,2013-01-21 08:22:00,
2013-01-21 00:32:00,20.0,9.0,-100.00,ENE,77,6.0,11.0,63,0.00,,,0.00,1.000000,,2013-01-21 08:32:00,
2013-01-21 00:42:00,20.0,9.0,-100.00,ENE,77,6.0,11.0,63,0.00,,,0.00,1.000000,,2013-01-21 08:42:00,
2013-01-21 00:52:00,20.0,9.0,-100.00,ENE,77,6.0,11.0,63,0.00,,,0.00,1.000000,,2013-01-21 08:52:00,
2013-01-21 01:22:00,20.0,9.0,-100.00,ENE,73,5.0,9.0,61,0.00,,,-99.99,1.000000,,2013-01-21 09:22:00,
2013-01-21 01:33:00,20.0,9.0,-100.00,ENE,73,5.0,9.0,61,0.00,,,-99.99,1.000000,,2013-01-21 09:33:00,
2013-01-21 01:42:00,20.0,9.0,-100.00,ENE,73,5.0,9.0,61,0.00,,,-99.99,1.000000,,2013-01-21 09:42:00,
2013-01-21 01:52:00,20.0,9.0,-100.00,ENE,73,5.0,9.0,61,0.00,,,-99.99,1.000000,,2013-01-21 09:52:00,
2013-01-21 02:22:00,16.0,8.0,-100.00,ENE,73,7.0,10.0,69,0.00,,,0.00,1.000000,,2013-01-21 10:22:00,
2013-01-21 02:32:00,16.0,8.0,-100.00,ENE,73,7.0,10.0,69,0.00,,,0.00,1.000000,,2013-01-21 10:32:00,
2013-01-21 02:42:00,16.0,8.0,-100.00,ENE,73,7.0,10.0,69,0.00,,,0.00,1.000000,,2013-01-21 10:42:00,
2013-01-21 02:52:00,16.0,8.0,-100.00,ENE,73,7.0,10.0,69,0.00,,,0.00,1.000000,,2013-01-21 10:52:00,
2013-01-21 03:22:00,17.0,8.0,-100.00,ENE,74,7.0,10.0,66,0.00,,,0.00,1.000000,,2013-01-21 11:22:00,
2013-01-21 03:32:00,17.0,8.0,-100.00,ENE,74,7.0,10.0,66,0.00,,,0.00,1.000000,,2013-01-21 11:32:00,
2013-01-21 03:42:00,17.0,8.0,-100.00,ENE,74,7.0,10.0,66,0.00,,,0.00,1.000000,,2013-01-21 11:42:00,
2013-01-21 03:53:00,17.0,8.0,-100.00,ENE,74,7.0,10.0,66,0.00,,,0.00,1.000000,,2013-01-21 11:53:00,
2013-01-21 04:22:00,13.0,6.0,-100.00,ENE,74,6.0,11.0,74,0.00,,,0.00,1.000000,,2013-01-21 12:22:00,
2013-01-21 04:32:00,13.0,6.0,-100.00,ENE,74,6.0,11.0,74,0.00,,,0.00,1.000000,,2013-01-21 12:32:00,
2013-01-21 04:42:00,13.0,6.0,-100.00,ENE,74,6.0,11.0,74,0.00,,,0.00,1.000000,,2013-01-21 12:42:00,
2013-01-21 04:52:00,13.0,6.0,-100.00,ENE,74,6.0,11.0,74,0.00,,,0.00,1.000000,,2013-01-21 12:52:00,
2013-01-21 05:23:00,14.0,7.0,-100.00,NE,55,7.0,10.0,73,0.00,,,-99.99,1.000000,,2013-01-21 13:23:00,
2013-01-21 05:33:00,14.0,7.0,-100.00,NE,55,7.0,10.0,73,0.00,,,-99.99,1.000000,,2013-01-21 13:33:00,
2013-01-21 05:42:00,14.0,7.0,-100.00,NE,55,7.0,10.0,73,0.00,,,-99.99,1.000000,,2013-01-21 13:42:00,
2013-01-21 05:53:00,14.0,7.0,-100.00,NE,55,7.0,10.0,73,0.00,,,-99.99,1.000000,,2013-01-21 13:53:00,
2013-01-21 06:23:00,12.0,6.0,-100.00,ENE,67,8.0,11.0,77,0.00,,,0.00,1.000000,,2013-01-21 14:23:00,
2013-01-21 06:32:00,12.0,6.0,-100.00,ENE,67,8.0,11.0,77,0.00,,,0.00,1.000000,,2013-01-21 14:32:00,
2013-01-21 06:43:00,12.0,6.0,-100.00,ENE,67,8.0,11.0,77,0.00,,,0.00,1.000000,,2013-01-21 14:43:00,
2013-01-21 06:52:00,12.0,6.0,-100.00,ENE,67,8.0,11.0,77,0.00,,,0.00,1.000000,,2013-01-21 14:52:00,
2013-01-21 07:23:00,11.0,5.0,-100.00,ENE,68,8.0,11.0,76,0.00,,,0.00,1.000000,,2013-01-21 15:23:00,
2013-01-21 07:33:00,11.0,5.0,-100.00,ENE,68,8.0,11.0,76,0.00,,,0.00,1.000000,,2013-01-21 15:33:00,
2013-01-21 07:42:00,11.0,5.0,-100.00,ENE,68,8.0,11.0,76,0.00,,,0.00,1.000000,,2013-01-21 15:42:00,
2013-01-21 07:52:00,11.0,5.0,-100.00,ENE,68,8.0,11.0,76,0.00,,,0.00,1.000000,,2013-01-21 15:52:00,
2013-01-21 08:23:00,11.0,5.0,-100.00,ENE,57,9.0,12.0,77,0.00,,,-99.99,6.000000,,2013-01-21 16:23:00,
2013-01-21 08:33:00,11.0,5.0,-100.00,ENE,57,9.0,12.0,77,0.00,,,-99.99,6.000000,,2013-01-21 16:33:00,
2013-01-21 08:43:00,11.0,5.0,-100.00,ENE,57,9.0,12.0,77,0.00,,,-99.99,6.000000,,2013-01-21 16:43:00,
2013-01-21 08:53:00,11.0,5.0,-100.00,ENE,57,9.0,12.0,77,0.00,,,-99.99,6.000000,,2013-01-21 16:53:00,
2013-01-21 09:22:00,13.0,5.0,-100.00,ENE,66,8.0,13.0,71,0.00,,,0.00,59.000000,,2013-01-21 17:22:00,
2013-01-21 09:33:00,13.0,5.0,-100.00,ENE,66,8.0,13.0,71,0.00,,,0.00,59.000000,,2013-01-21 17:33:00,
2013-01-21 09:42:00,13.0,5.0,-100.00,ENE,66,8.0,13.0,71,0.00,,,0.00,59.000000,,2013-01-21 17:42:00,
2013-01-21 09:52:00,13.0,5.0,-100.00,ENE,66,8.0,13.0,71,0.00,,,0.00,59.000000,,2013-01-21 17:52:00,
2013-01-21 10:22:00,19.0,7.0,-100.00,ENE,68,7.0,10.0,59,0.00,,,0.00,150.000000,,2013-01-21 18:22:00,
2013-01-21 10:33:00,19.0,7.0,-100.00,ENE,68,7.0,10.0,59,0.00,,,0.00,150.000000,,2013-01-21 18:33:00,
2013-01-21 10:42:00,19.0,7.0,-100.00,ENE,68,7.0,10.0,59,0.00,,,0.00,150.000000,,2013-01-21 18:42:00,
2013-01-21 10:52:00,19.0,7.0,-100.00,ENE,68,7.0,10.0,59,0.00,,,0.00,150.000000,,2013-01-21 18:52:00,
2013-01-21 11:22:00,31.0,11.0,-100.00,ENE,77,3.0,9.0,43,0.00,,,0.00,97.000000,,2013-01-21 19:22:00,
2013-01-21 11:42:00,31.0,11.0,-100.00,ENE,77,3.0,9.0,43,0.00,,,0.00,97.000000,,2013-01-21 19:42:00,
2013-01-21 11:52:00,31.0,11.0,-100.00,ENE,77,3.0,9.0,43,0.00,,,0.00,97.000000,,2013-01-21 19:52:00,
2013-01-21 12:22:00,38.0,12.0,-100.00,ENE,68,3.0,7.0,34,0.00,,,0.00,319.000000,,2013-01-21 20:22:00,
2013-01-21 12:43:00,38.0,12.0,-100.00,ENE,68,3.0,7.0,34,0.00,,,0.00,319.000000,,2013-01-21 20:43:00,
2013-01-21 12:52:00,38.0,12.0,-100.00,ENE,68,3.0,7.0,34,0.00,,,0.00,319.000000,,2013-01-21 20:52:00,
2013-01-21 13:22:00,44.0,17.0,-100.00,WSW,237,3.0,4.0,34,0.00,,,0.00,540.000000,,2013-01-21 21:22:00,
2013-01-21 13:33:00,44.0,17.0,-100.00,WSW,237,3.0,4.0,34,0.00,,,0.00,540.000000,,2013-01-21 21:33:00,
2013-01-21 13:43:00,44.0,17.0,-100.00,WSW,237,3.0,4.0,34,0.00,,,0.00,540.000000,,2013-01-21 21:43:00,
2013-01-21 13:53:00,44.0,17.0,-100.00,WSW,237,3.0,4.0,34,0.00,,,0.00,540.000000,,2013-01-21 21:53:00,
2013-01-21 14:23:00,44.0,19.0,-100.00,SW,231,4.0,5.0,36,0.00,,,0.00,509.000000,,2013-01-21 22:23:00,
2013-01-21 14:33:00,44.0,19.0,-100.00,SW,231,4.0,5.0,36,0.00,,,0.00,509.000000,,2013-01-21 22:33:00,
2013-01-21 14:42:00,44.0,19.0,-100.00,SW,231,4.0,5.0,36,0.00,,,0.00,509.000000,,2013-01-21 22:42:00,
2013-01-21 14:52:00,44.0,19.0,-100.00,SW,231,4.0,5.0,36,0.00,,,0.00,509.000000,,2013-01-21 22:52:00,
2013-01-21 15:22:00,44.0,17.0,-100.00,WSW,245,4.0,6.0,34,0.00,,,0.00,420.000000,,2013-01-21 23:22:00,
2013-01-21 15:33:00,44.0,17.0,-100.00,WSW,245,4.0,6.0,34,0.00,,,0.00,420.000000,,2013-01-21 23:33:00,
2013-01-21 15:42:00,44.0,17.0,-100.00,WSW,245,4.0,6.0,34,0.00,,,0.00,420.000000,,2013-01-21 23:42:00,
2013-01-21 15:52:00,44.0,17.0,-100.00,WSW,245,4.0,6.0,34,0.00,,,0.00,420.000000,,2013-01-21 23:52:00,
2013-01-21 16:22:00,39.0,15.0,-100.00,SW,236,4.0,6.0,37,0.00,,,-99.99,286.000000,,2013-01-22 00:22:00,
2013-01-21 16:32:00,39.0,15.0,-100.00,SW,236,4.0,6.0,37,0.00,,,-99.99,286.000000,,2013-01-22 00:32:00,
2013-01-21 16:42:00,39.0,15.0,-100.00,SW,236,4.0,6.0,37,0.00,,,-99.99,286.000000,,2013-01-22 00:42:00,
2013-01-21 16:52:00,39.0,15.0,-100.00,SW,236,4.0,6.0,37,0.00,,,-99.99,286.000000,,2013-01-22 00:52:00,
2013-01-21 17:23:00,37.0,13.0,-100.00,WSW,250,2.0,5.0,36,0.00,,,0.00,109.000000,,2013-01-22 01:23:00,
2013-01-21 17:32:00,37.0,13.0,-100.00,WSW,250,2.0,5.0,36,0.00,,,0.00,109.000000,,2013-01-22 01:32:00,
2013-01-21 17:42:00,37.0,13.0,-100.00,WSW,250,2.0,5.0,36,0.00,,,0.00,109.000000,,2013-01-22 01:42:00,
2013-01-21 17:52:00,37.0,13.0,-100.00,WSW,250,2.0,5.0,36,0.00,,,0.00,109.000000,,2013-01-22 01:52:00,
2013-01-21 18:22:00,32.0,7.0,-100.00,WNW,292,3.0,5.0,35,0.00,,,0.00,3.000000,,2013-01-22 02:22:00,
2013-01-21 18:32:00,32.0,7.0,-100.00,WNW,292,3.0,5.0,35,0.00,,,0.00,3.000000,,2013-01-22 02:32:00,
2013-01-21 18:42:00,32.0,7.0,-100.00,WNW,292,3.0,5.0,35,0.00,,,0.00,3.000000,,2013-01-22 02:42:00,
2013-01-21 18:52:00,32.0,7.0,-100.00,WNW,292,3.0,5.0,35,0.00,,,0.00,3.000000,,2013-01-22 02:52:00,
2013-01-21 19:22:00,34.0,7.0,-100.00,ESE,111,2.0,4.0,32,0.00,,,0.00,1.000000,,2013-01-22 03:22:00,
2013-01-21 19:32:00,34.0,7.0,-100.00,ESE,111,2.0,4.0,32,0.00,,,0.00,1.000000,,2013-01-22 03:32:00,
2013-01-21 19:42:00,34.0,7.0,-100.00,ESE,111,2.0,4.0,32,0.00,,,0.00,1.000000,,2013-01-22 03:42:00,
2013-01-21 19:52:00,34.0,7.0,-100.00,ESE,111,2.0,4.0,32,0.00,,,0.00,1.000000,,2013-01-22 03:52:00,
2013-01-21 20:22:00,27.0,10.0,-100.00,East,101,1.0,3.0,49,0.00,,,0.00,1.000000,,2013-01-22 04:22:00,
2013-01-21 20:32:00,27.0,10.0,-100.00,East,101,1.0,3.0,49,0.00,,,0.00,1.000000,,2013-01-22 04:32:00,
2013-01-21 20:42:00,27.0,10.0,-100.00,East,101,1.0,3.0,49,0.00,,,0.00,1.000000,,2013-01-22 04:42:00,
2013-01-21 20:52:00,27.0,10.0,-100.00,East,101,1.0,3.0,49,0.00,,,0.00,1.000000,,2013-01-22 04:52:00,
2013-01-21 21:22:00,26.0,11.0,-100.00,East,85,2.0,3.0,53,0.00,,,0.00,1.000000,,2013-01-22 05:22:00,
2013-01-21 21:32:00,26.0,11.0,-100.00,East,85,2.0,3.0,53,0.00,,,0.00,1.000000,,2013-01-22 05:32:00,
2013-01-21 21:42:00,26.0,11.0,-100.00,East,85,2.0,3.0,53,0.00,,,0.00,1.000000,,2013-01-22 05:42:00,
2013-01-21 21:52:00,26.0,11.0,-100.00,East,85,2.0,3.0,53,0.00,,,0.00,1.000000,,2013-01-22 05:52:00,
2013-01-21 22:22:00,26.0,12.0,-100.00,ESE,104,4.0,6.0,54,0.00,,,0.00,1.000000,,2013-01-22 06:22:00,
2013-01-21 22:32:00,26.0,12.0,-100.00,ESE,104,4.0,6.0,54,0.00,,,0.00,1.000000,,2013-01-22 06:32:00,
2013-01-21 22:42:00,26.0,12.0,-100.00,ESE,104,4.0,6.0,54,0.00,,,0.00,1.000000,,2013-01-22 06:42:00,
2013-01-21 22:52:00,26.0,12.0,-100.00,ESE,104,4.0,6.0,54,0.00,,,0.00,1.000000,,2013-01-22 06:52:00,
2013-01-21 23:22:00,24.0,11.0,-100.00,ENE,70,3.0,4.0,56,0.00,,,-99.99,1.000000,,2013-01-22 07:22:00,
2013-01-21 23:32:00,24.0,11.0,-100.00,ENE,70,3.0,4.0,56,0.00,,,-99.99,1.000000,,2013-01-22 07:32:00,